This is the latest recevied weather packets stored in our database for station/object KC9Q. If no packets are shown the sender has not sent any weather packets the latest 10 day(s).
| Time | Temp. | Humidity | Pressure | Rain* | Wind** | Luminosity | Snow |
|---|---|---|---|---|---|---|---|
| 1778023047 | 13.33° C | 99% | 1005.5 hPa | 1.27 mm | - | 39 W/m² | - |
| 1778022746 | 13.89° C | 99% | 1005.7 hPa | 0.51 mm | - | 21 W/m² | - |
| 1778022443 | 13.89° C | 99% | 1006.1 hPa | 0.51 mm | - | 13 W/m² | - |
| 1778022140 | 13.89° C | 99% | 1006.3 hPa | 1.27 mm | - | 14 W/m² | - |
| 1778021836 | 13.89° C | 99% | 1006.2 hPa | 1.78 mm | - | 17 W/m² | - |
| 1778021533 | 13.89° C | 99% | 1006.2 hPa | 3.56 mm | - | 27 W/m² | - |
| 1778021229 | 13.89° C | 99% | 1006.1 hPa | 6.1 mm | - | 50 W/m² | - |
| 1778020927 | 14.44° C | 99% | 1006.5 hPa | 7.87 mm | - | 33 W/m² | - |
| 1778020624 | 14.44° C | 99% | 1006.8 hPa | 7.11 mm | - | 18 W/m² | - |
| 1778020320 | 15° C | 99% | 1006.4 hPa | 3.05 mm | - | 12 W/m² | - |
| 1778020016 | 15.56° C | 99% | 1006.4 hPa | 1.78 mm | - | 9 W/m² | - |
| 1778019712 | 17.22° C | 99% | 1006.2 hPa | 1.27 mm | - | 16 W/m² | - |
| 1778019410 | 17.22° C | 99% | 1006 hPa | 1.27 mm | - | 13 W/m² | - |
| 1778019106 | 17.22° C | 99% | 1006.1 hPa | 0.51 mm | - | 18 W/m² | - |
| 1778018803 | 17.22° C | 99% | 1006.1 hPa | 1.27 mm | - | 20 W/m² | - |
| 1778018501 | 17.22° C | 99% | 1006.1 hPa | 0.51 mm | - | 29 W/m² | - |
| 1778018198 | 17.22° C | 99% | 1006.1 hPa | 0.51 mm | - | 27 W/m² | - |
| 1778017896 | 17.22° C | 99% | 1006.1 hPa | 0.51 mm | - | 27 W/m² | - |
| 1778017594 | 17.22° C | 99% | 1006.2 hPa | 0.51 mm | - | 24 W/m² | - |
| 1778017291 | 17.22° C | 99% | 1006.3 hPa | 1.27 mm | - | 41 W/m² | - |
| 1778016989 | 17.22° C | 99% | 1006.2 hPa | 0.51 mm | - | 51 W/m² | - |
| 1778016685 | 17.22° C | 99% | 1006.3 hPa | 1.27 mm | - | 58 W/m² | - |
| 1778016381 | 17.22° C | 99% | 1006.1 hPa | 1.78 mm | - | 72 W/m² | - |
| 1778016079 | 17.22° C | 99% | 1006.3 hPa | 2.29 mm | - | 58 W/m² | - |
| 1778015775 | 17.22° C | 99% | 1006.2 hPa | 3.05 mm | - | 70 W/m² | - |
* Rain latest hour (hover to see other rain measurements)
** Current wind speed in m/s (hover to see current wind gust speed)